Portada
METAR-TAF:

METAR-TAF

Aeroports :

Aeroport de Badajoz

Badajoz, Espanya

latitud: 38-53N, longitud: 006-49W, altitud: 185 m

Observació

L'informe es va fer fa 37 minuts, a les 20:00 UTC
Vent 13 kt del Oest/Sud-Oest
Temperatura 11°C
Humitat 87%
Pressió 1019 hPa
Visibilitat 10 km o més
Núvols disperses a una alçada de 1500 ft
Cel ennuvolat a una alçada de 3000 ft

METAR: LEBZ 222000Z 25013KT 9999 SCT015 BKN030 11/09 Q1019

Hora: 21:37 (20:37 UTC)

Pronòstic

L'informe es va fer fa 3 hores i 37 minuts, a les 17:00 UTC
Pronòstic vàlid del 22 a les 18 UTC al 23 a les 18 UTC
Vent 10 kt del Oest/Nord-Oest
Visibilitat 10 km o més
Escasses núvols a una alçada de 2000 ft
Núvols disperses a una alçada de 3000 ft
Temporalment
l' 23 a les 10 UTC al 23 a les 18 UTC
Vent 16 kt del Oest/Nord-Oest amb ràfegues de 28 kt

TAF: LEBZ 221700Z 2218/2318 29010KT 9999 FEW020 SCT030 TX16/2315Z TN05/2307Z TEMPO 2310/2318 29016G28KT

Observacions i pronòstics meteorològics de més de 4000 aeroports (METAR i TAF).

Les estacions disponibles són els punts grocs i vermells al mapa.

Posi el ratolí al punt desitjat per veure el nom de l'estació.

Feu clic per veure les observacions i els pronòstics meteorològics.

Per canviar el mapa: feu clic els botons verds amb una creu de color negre per apropar; al botó verd amb un guió per allunyar la imatge; o en les fletxes verdes per a mapes adjacents.


METAR-TAF: